createdAt,value
2018-02-06T00:00:07.164Z,2.80
2018-02-06T00:01:07.137Z,5.20
2018-02-06T00:02:07.134Z,2.90
2018-02-06T00:03:07.130Z,2.00
2018-02-06T00:04:07.075Z,3.80
2018-02-06T00:05:07.088Z,3.90
2018-02-06T00:06:07.044Z,2.40
2018-02-06T00:07:07.054Z,2.20
2018-02-06T00:08:07.018Z,3.40
2018-02-06T00:09:06.999Z,4.10
2018-02-06T00:10:06.952Z,3.80
2018-02-06T00:11:06.936Z,5.10
2018-02-06T00:12:06.934Z,2.10
2018-02-06T00:13:06.887Z,2.70
2018-02-06T00:14:06.879Z,3.50
2018-02-06T00:15:06.848Z,4.10
2018-02-06T00:16:06.822Z,3.00
2018-02-06T00:17:06.831Z,3.00
2018-02-06T00:18:06.786Z,2.80
2018-02-06T00:19:06.786Z,3.50
2018-02-06T00:20:06.740Z,4.20
2018-02-06T00:21:06.725Z,4.90
2018-02-06T00:22:06.725Z,4.30
2018-02-06T00:23:06.696Z,3.70
2018-02-06T00:24:06.668Z,3.10
2018-02-06T00:25:06.643Z,3.60
2018-02-06T00:26:06.622Z,4.80
2018-02-06T00:27:06.620Z,1.70
2018-02-06T00:28:06.603Z,4.50
2018-02-06T00:29:06.578Z,2.50
2018-02-06T00:30:06.545Z,2.30
2018-02-06T00:31:06.537Z,2.40
2018-02-06T00:32:06.490Z,3.30
2018-02-06T00:33:06.468Z,3.30
2018-02-06T00:34:06.492Z,4.70
2018-02-06T00:35:06.440Z,2.50
2018-02-06T00:36:06.422Z,1.40
2018-02-06T00:37:06.380Z,3.20
2018-02-06T00:38:06.445Z,2.20
2018-02-06T00:39:06.367Z,3.00
2018-02-06T00:40:06.345Z,2.30
2018-02-06T00:41:06.310Z,4.30
2018-02-06T00:42:06.282Z,2.60
2018-02-06T00:43:06.253Z,3.10
2018-02-06T00:44:06.230Z,3.10
2018-02-06T00:45:06.213Z,2.20
2018-02-06T00:46:06.190Z,4.20
2018-02-06T00:47:06.173Z,2.60
2018-02-06T00:48:06.162Z,3.40
2018-02-06T00:49:06.132Z,3.20
2018-02-06T00:50:06.117Z,2.30
2018-02-06T00:51:06.093Z,2.80
2018-02-06T00:52:06.090Z,3.80
2018-02-06T00:53:06.041Z,2.40
2018-02-06T00:54:06.025Z,1.80
2018-02-06T00:55:06.022Z,2.90
2018-02-06T00:56:05.985Z,3.20
2018-02-06T00:57:05.967Z,2.30
2018-02-06T00:58:05.939Z,3.20
2018-02-06T00:59:05.945Z,2.20
2018-02-06T01:00:05.896Z,1.40
2018-02-06T01:01:05.902Z,1.80
2018-02-06T01:02:05.870Z,2.50
2018-02-06T01:03:05.835Z,2.40
2018-02-06T01:04:05.817Z,4.60
2018-02-06T01:05:05.791Z,2.50
2018-02-06T01:06:05.801Z,2.20
2018-02-06T01:07:05.776Z,2.40
2018-02-06T01:08:05.729Z,3.50
2018-02-06T01:09:05.712Z,2.60
2018-02-06T01:10:05.691Z,1.90
2018-02-06T01:11:05.668Z,2.30
2018-02-06T01:12:05.644Z,2.10
2018-02-06T01:13:05.652Z,3.00
2018-02-06T01:14:05.633Z,2.80
2018-02-06T01:15:05.584Z,1.90
2018-02-06T01:16:05.605Z,1.80
2018-02-06T01:17:05.564Z,3.90
2018-02-06T01:18:05.547Z,2.30
2018-02-06T01:19:05.497Z,4.30
2018-02-06T01:20:05.496Z,2.00
2018-02-06T01:21:05.480Z,2.50
2018-02-06T01:22:05.433Z,2.00
2018-02-06T01:23:05.425Z,1.90
2018-02-06T01:24:05.421Z,5.00
2018-02-06T01:25:05.399Z,5.80
2018-02-06T01:26:05.349Z,2.40
2018-02-06T01:27:05.325Z,2.60
2018-02-06T01:28:05.332Z,2.50
2018-02-06T01:29:05.311Z,2.30
2018-02-06T01:30:05.278Z,2.20
2018-02-06T01:31:05.273Z,2.50
2018-02-06T01:32:05.248Z,2.40
2018-02-06T01:33:05.205Z,2.40
2018-02-06T01:34:05.209Z,2.70
2018-02-06T01:35:05.189Z,2.20
2018-02-06T01:36:05.172Z,2.10
2018-02-06T01:37:05.122Z,1.90
2018-02-06T01:38:05.127Z,3.80
2018-02-06T01:39:05.083Z,4.20
2018-02-06T01:40:05.080Z,5.30
2018-02-06T01:41:05.047Z,2.10
2018-02-06T01:42:05.016Z,2.90
2018-02-06T01:43:04.999Z,3.50
2018-02-06T01:44:04.997Z,3.60
2018-02-06T01:45:04.947Z,3.20
2018-02-06T01:46:04.962Z,2.60
2018-02-06T01:47:04.913Z,1.70
2018-02-06T01:48:04.888Z,3.30
2018-02-06T01:49:04.873Z,2.00
2018-02-06T01:50:04.874Z,2.50
2018-02-06T01:51:04.824Z,1.80
2018-02-06T01:52:04.806Z,3.40
2018-02-06T01:53:04.811Z,2.20
2018-02-06T01:54:04.765Z,3.00
2018-02-06T01:55:04.769Z,2.70
2018-02-06T01:56:04.747Z,2.50
2018-02-06T01:57:04.706Z,3.50
2018-02-06T01:58:04.702Z,2.80
2018-02-06T01:59:04.660Z,1.30
2018-02-06T02:00:04.642Z,2.10
2018-02-06T02:01:04.647Z,2.40
2018-02-06T02:02:04.593Z,2.00
2018-02-06T02:03:04.598Z,1.30
2018-02-06T02:04:04.580Z,2.20
2018-02-06T02:05:04.537Z,2.50
2018-02-06T02:06:04.513Z,3.00
2018-02-06T02:07:04.518Z,4.30
2018-02-06T02:08:04.499Z,3.50
2018-02-06T02:09:04.520Z,2.70
2018-02-06T02:10:04.459Z,3.50
2018-02-06T02:11:04.411Z,5.30
2018-02-06T02:12:04.378Z,3.40
2018-02-06T02:13:04.364Z,5.20
2018-02-06T02:14:04.352Z,3.00
2018-02-06T02:15:04.316Z,2.90
2018-02-06T02:16:04.300Z,4.20
2018-02-06T02:17:04.281Z,2.60
2018-02-06T02:18:04.284Z,5.30
2018-02-06T02:19:04.237Z,3.50
2018-02-06T02:20:04.242Z,5.70
2018-02-06T02:21:04.192Z,3.10
2018-02-06T02:22:04.178Z,3.20
2018-02-06T02:23:04.164Z,4.90
2018-02-06T02:24:04.128Z,5.20
2018-02-06T02:25:04.136Z,4.80
2018-02-06T02:26:04.134Z,4.20
2018-02-06T02:27:04.068Z,3.30
2018-02-06T02:28:04.044Z,3.40
2018-02-06T02:29:04.052Z,4.20
2018-02-06T02:30:04.026Z,6.50
2018-02-06T02:31:03.996Z,4.00
2018-02-06T02:32:03.957Z,4.50
2018-02-06T02:33:03.961Z,6.20
2018-02-06T02:34:03.946Z,4.40
2018-02-06T02:35:03.906Z,7.00
2018-02-06T02:36:03.875Z,7.10
2018-02-06T02:37:03.848Z,5.90
2018-02-06T02:38:03.832Z,6.20
2018-02-06T02:39:03.811Z,3.50
2018-02-06T02:40:03.787Z,4.20
2018-02-06T02:41:03.775Z,3.90
2018-02-06T04:39:01.283Z,8.10
2018-02-06T04:40:01.261Z,7.80
2018-02-06T04:41:01.238Z,8.00
2018-02-06T04:42:01.220Z,8.90
2018-02-06T04:43:01.178Z,8.50
2018-02-06T04:44:01.145Z,8.10
2018-02-06T04:45:01.158Z,6.20
2018-02-06T04:46:01.111Z,6.50
2018-02-06T04:47:01.100Z,5.70
2018-02-06T04:48:01.097Z,6.60
2018-02-06T04:49:01.077Z,9.10
2018-02-06T04:50:01.023Z,7.10
2018-02-06T04:51:01.008Z,7.30
2018-02-06T04:52:00.987Z,6.10
2018-02-06T04:53:00.992Z,5.70
2018-02-06T04:54:00.939Z,6.30
2018-02-06T04:55:00.921Z,5.80
2018-02-06T04:56:00.900Z,9.60
2018-02-06T04:57:00.904Z,6.50
2018-02-06T04:58:00.854Z,6.60
2018-02-06T04:59:00.834Z,8.70
2018-02-06T05:00:00.841Z,6.80
2018-02-06T05:01:00.820Z,6.50
2018-02-06T05:02:00.797Z,9.20
2018-02-06T05:03:00.777Z,6.70
2018-02-06T05:04:00.729Z,7.40
2018-02-06T05:05:00.712Z,6.50
2018-02-06T05:06:00.688Z,11.20
2018-02-06T05:07:00.668Z,7.80
2018-02-06T05:08:00.673Z,6.10
2018-02-06T05:09:00.626Z,6.50
2018-02-06T05:10:00.632Z,8.20
2018-02-06T05:11:00.594Z,6.90
2018-02-06T05:12:00.557Z,6.50
2018-02-06T05:13:00.543Z,6.20
2018-02-06T05:14:00.549Z,6.00
2018-02-06T05:15:00.530Z,7.30
2018-02-06T05:16:00.478Z,7.50
2018-02-06T05:17:00.457Z,7.50
2018-02-06T05:18:00.440Z,7.20
2018-02-06T05:19:00.415Z,8.80
2018-02-06T05:20:00.402Z,7.40
2018-02-06T05:21:00.380Z,7.70
2018-02-06T05:22:00.353Z,7.60
2018-02-06T05:23:00.334Z,6.70
2018-02-06T05:24:00.337Z,7.40
2018-02-06T05:25:00.315Z,7.00
2018-02-06T05:26:00.272Z,9.70
2018-02-06T05:27:00.260Z,8.10
2018-02-06T05:28:00.239Z,7.10
2018-02-06T05:29:00.217Z,8.90
2018-02-06T05:30:00.186Z,6.90
2018-02-06T05:31:00.170Z,7.60
2018-02-06T05:32:00.142Z,7.50
2018-02-06T05:33:00.119Z,7.30
2018-02-06T05:34:00.133Z,7.70
2018-02-06T05:35:00.086Z,11.30
2018-02-06T05:36:00.056Z,8.10
2018-02-06T05:37:00.062Z,8.80
2018-02-06T05:38:00.042Z,8.30
2018-02-06T05:39:00.024Z,7.80
2018-02-06T05:39:59.976Z,9.20
2018-02-06T05:40:59.948Z,9.20
2018-02-06T05:41:59.960Z,8.80
2018-02-06T05:42:59.914Z,9.20
2018-02-06T05:43:59.887Z,8.60
2018-02-06T05:44:59.901Z,8.90
2018-02-06T05:45:59.847Z,8.80
2018-02-06T05:46:59.853Z,11.00
2018-02-06T05:47:59.835Z,10.90
2018-02-06T05:48:59.785Z,8.40
2018-02-06T05:49:59.795Z,10.80
2018-02-06T05:50:59.772Z,9.10
2018-02-06T05:51:59.727Z,10.70
2018-02-06T05:52:59.725Z,10.60
2018-02-06T05:53:59.712Z,10.00
2018-02-06T05:54:59.663Z,8.80
2018-02-06T05:55:59.667Z,9.50
2018-02-06T05:56:59.629Z,13.80
2018-02-06T05:57:59.621Z,10.60
2018-02-06T05:58:59.609Z,10.00
2018-02-06T05:59:59.556Z,10.20
2018-02-06T06:00:59.532Z,9.50
2018-02-06T06:01:59.524Z,11.40
2018-02-06T06:02:59.486Z,10.60
2018-02-06T06:03:59.504Z,9.60
2018-02-06T06:04:59.453Z,9.40
2018-02-06T06:05:59.459Z,10.40
2018-02-06T06:06:59.417Z,11.40
2018-02-06T06:07:59.387Z,9.90
2018-02-06T06:08:59.370Z,11.00
2018-02-06T06:09:59.371Z,10.40
2018-02-06T06:10:59.354Z,9.60
2018-02-06T06:11:59.307Z,10.10
2018-02-06T06:12:59.286Z,13.20
2018-02-06T06:13:59.326Z,9.50
2018-02-06T06:14:59.243Z,8.90
2018-02-06T06:15:59.251Z,10.10
2018-02-06T06:16:59.230Z,9.00
2018-02-06T06:17:59.211Z,11.00
2018-02-06T06:18:59.161Z,11.30
2018-02-06T06:19:59.147Z,9.90
2018-02-06T06:20:59.130Z,10.30
2018-02-06T06:21:59.107Z,12.70
2018-02-06T06:22:59.094Z,13.00
2018-02-06T06:23:59.054Z,10.70
2018-02-06T06:24:59.034Z,10.70
2018-02-06T06:25:59.042Z,10.70
2018-02-06T06:26:59.021Z,13.30
2018-02-06T06:27:59.533Z,11.80
2018-02-06T06:28:58.959Z,12.10
2018-02-06T06:29:58.939Z,11.60
2018-02-06T06:30:58.911Z,11.10
2018-02-06T06:31:58.887Z,12.10
2018-02-06T06:32:58.866Z,12.30
2018-02-06T06:33:58.848Z,12.20
2018-02-06T06:34:58.854Z,14.10
2018-02-06T06:35:58.808Z,11.60
2018-02-06T06:36:58.813Z,12.20
2018-02-06T06:37:58.774Z,12.90
2018-02-06T06:38:58.768Z,11.30
2018-02-06T06:39:58.725Z,11.90
2018-02-06T06:40:58.728Z,11.60
2018-02-06T06:41:58.679Z,11.50
2018-02-06T06:42:58.665Z,13.50
2018-02-06T06:43:58.648Z,14.10
2018-02-06T06:44:58.616Z,12.40
2018-02-06T06:45:58.595Z,12.00
2018-02-06T06:46:58.591Z,12.90
2018-02-06T06:47:58.553Z,12.90
2018-02-06T06:48:58.532Z,13.20
2018-02-06T06:49:58.527Z,14.00
2018-02-06T06:50:58.517Z,16.10
2018-02-06T06:51:58.464Z,13.70
2018-02-06T06:52:58.448Z,13.50
2018-02-06T06:53:58.457Z,14.10
2018-02-06T06:54:58.412Z,12.80
2018-02-06T06:55:58.415Z,14.30
2018-02-06T06:56:58.362Z,13.30
2018-02-06T06:57:58.369Z,12.30
2018-02-06T06:58:58.354Z,13.60
2018-02-06T06:59:58.329Z,12.30
2018-02-06T07:00:58.293Z,13.60
2018-02-06T07:01:58.261Z,11.90
2018-02-06T07:02:58.241Z,13.30
2018-02-06T07:03:58.245Z,12.80
2018-02-06T07:04:58.210Z,12.60
2018-02-06T07:05:58.180Z,12.10
2018-02-06T07:06:58.154Z,11.80
2018-02-06T07:07:58.134Z,13.90
2018-02-06T07:08:58.118Z,10.00
2018-02-06T07:09:58.103Z,10.00
2018-02-06T07:11:31.312Z,10.60
2018-02-06T07:11:58.052Z,9.50
2018-02-06T07:12:58.063Z,10.80
2018-02-06T07:13:58.039Z,10.00
2018-02-06T07:14:57.992Z,10.30
2018-02-06T07:15:57.970Z,9.90
2018-02-06T07:16:57.971Z,11.10
2018-02-06T07:17:57.930Z,12.00
2018-02-06T07:18:57.906Z,11.10
2018-02-06T07:19:57.884Z,8.10
2018-02-06T07:20:57.875Z,9.50
2018-02-06T07:21:57.843Z,10.70
2018-02-06T07:22:57.831Z,9.50
2018-02-06T07:23:57.828Z,10.50
2018-02-06T07:24:57.775Z,10.30
2018-02-06T07:25:57.761Z,8.60
2018-02-06T07:26:57.741Z,9.80
2018-02-06T07:27:57.719Z,8.70
2018-02-06T07:28:57.710Z,11.10
2018-02-06T07:29:57.700Z,8.40
2018-02-06T07:30:57.683Z,10.10
2018-02-06T07:31:57.661Z,9.20
2018-02-06T07:32:57.641Z,11.40
2018-02-06T07:33:57.591Z,9.70
2018-02-06T07:34:57.600Z,10.40
2018-02-06T07:35:57.553Z,9.90
2018-02-06T07:36:57.530Z,8.90
2018-02-06T07:37:57.533Z,10.30
2018-02-06T07:38:57.515Z,9.20
2018-02-06T07:39:57.490Z,8.10
2018-02-06T07:40:57.471Z,8.80
2018-02-06T07:41:57.427Z,10.10
2018-02-06T07:42:57.409Z,8.70
2018-02-06T07:43:57.411Z,8.20
2018-02-06T07:44:57.385Z,9.30
2018-02-06T07:45:57.368Z,8.70
2018-02-06T07:46:57.317Z,7.30
2018-02-06T07:47:57.311Z,11.40
2018-02-06T07:48:57.282Z,7.50
2018-02-06T07:49:57.254Z,7.60
2018-02-06T07:50:57.310Z,8.90
2018-02-06T07:51:57.213Z,9.00
2018-02-06T07:52:57.219Z,8.20
2018-02-06T07:53:57.198Z,9.30
2018-02-06T07:54:57.180Z,8.20
2018-02-06T07:55:57.168Z,9.20
2018-02-06T07:56:57.111Z,7.60
2018-02-06T07:57:57.092Z,7.70
2018-02-06T07:58:57.071Z,7.70
2018-02-06T07:59:57.053Z,7.50
2018-02-06T08:00:57.029Z,7.90
2018-02-06T08:01:57.031Z,9.30
2018-02-06T08:02:56.991Z,11.00
2018-02-06T08:03:56.963Z,7.80
2018-02-06T08:04:56.946Z,7.30
2018-02-06T08:05:56.937Z,8.10
2018-02-06T08:06:56.926Z,8.80
2018-02-06T08:07:56.888Z,12.20
2018-02-06T08:08:56.888Z,6.60
2018-02-06T08:09:56.867Z,6.80
2018-02-06T08:10:56.833Z,8.30
2018-02-06T08:11:56.790Z,7.80
2018-02-06T08:12:56.778Z,7.40
2018-02-06T08:13:56.760Z,8.50
2018-02-06T08:14:56.746Z,6.80
2018-02-06T08:15:56.721Z,8.70
2018-02-06T08:16:56.692Z,7.40
2018-02-06T08:17:56.680Z,6.70
2018-02-06T08:18:56.665Z,6.70
2018-02-06T08:19:56.640Z,8.90
2018-02-06T08:20:56.608Z,5.50
2018-02-06T08:21:56.591Z,6.80
2018-02-06T08:22:56.580Z,6.50
2018-02-06T08:23:56.558Z,6.20
2018-02-06T08:24:56.541Z,7.30
2018-02-06T08:25:56.510Z,6.30
2018-02-06T08:26:56.493Z,6.90
2018-02-06T08:27:56.463Z,5.80
2018-02-06T08:28:56.468Z,6.60
2018-02-06T08:29:56.447Z,6.70
2018-02-06T08:30:56.404Z,8.80
2018-02-06T08:31:56.387Z,9.60
2018-02-06T08:32:56.385Z,7.60
2018-02-06T08:33:56.365Z,11.20
2018-02-06T08:34:56.335Z,11.60
2018-02-06T08:35:56.297Z,11.50
2018-02-06T08:36:56.279Z,7.20
2018-02-06T08:37:56.272Z,9.10
2018-02-06T08:38:56.237Z,10.30
2018-02-06T08:39:56.213Z,11.50
2018-02-06T08:40:56.197Z,6.80
2018-02-06T08:41:56.174Z,7.50
2018-02-06T08:42:56.170Z,9.20
2018-02-06T08:43:56.144Z,12.50
2018-02-06T08:44:56.110Z,13.00
2018-02-06T08:45:56.095Z,14.00
2018-02-06T08:46:56.073Z,14.00
2018-02-06T08:47:56.053Z,11.70
2018-02-06T08:48:56.026Z,10.90
2018-02-06T08:49:56.024Z,12.10
2018-02-06T08:50:56.002Z,12.80
2018-02-06T08:51:55.979Z,14.40
2018-02-06T08:52:55.949Z,12.60
2018-02-06T08:53:55.937Z,15.50
2018-02-06T08:54:55.909Z,16.00
2018-02-06T08:55:55.913Z,13.00
2018-02-06T08:56:55.873Z,17.10
2018-02-06T08:57:55.860Z,15.70
2018-02-06T08:58:55.833Z,18.30
2018-02-06T08:59:55.809Z,16.40
2018-02-06T09:00:55.801Z,20.60
2018-02-06T09:01:55.777Z,16.50
2018-02-06T09:02:55.739Z,16.70
2018-02-06T09:03:55.729Z,14.90
2018-02-06T09:04:55.700Z,19.90
2018-02-06T09:05:55.692Z,19.40
2018-02-06T09:06:55.659Z,18.40
2018-02-06T09:07:55.642Z,18.30
2018-02-06T09:08:55.624Z,18.20
2018-02-06T09:09:55.599Z,19.60
2018-02-06T09:10:55.580Z,22.00
2018-02-06T09:11:55.550Z,23.20
2018-02-06T09:12:55.536Z,21.00
2018-02-06T09:13:55.543Z,19.00
2018-02-06T09:14:55.498Z,24.20
2018-02-06T09:15:55.487Z,20.10
2018-02-06T09:16:55.466Z,17.80
2018-02-06T09:17:55.459Z,18.10
2018-02-06T09:18:55.415Z,17.50
2018-02-06T09:19:55.392Z,19.00
2018-02-06T09:20:55.379Z,16.10
2018-02-06T09:21:55.367Z,17.90
2018-02-06T09:22:55.359Z,18.90
2018-02-06T09:23:55.340Z,16.80
2018-02-06T09:24:55.302Z,15.80
2018-02-06T09:25:55.295Z,16.50
2018-02-06T09:26:55.268Z,14.00
2018-02-06T09:27:55.257Z,17.20
2018-02-06T09:28:55.238Z,14.00
2018-02-06T09:29:55.191Z,12.20
2018-02-06T09:30:55.184Z,14.40
2018-02-06T09:31:55.162Z,9.90
2018-02-06T09:32:55.156Z,11.60
2018-02-06T09:33:55.107Z,10.20
2018-02-06T09:34:55.090Z,11.00
2018-02-06T09:35:55.071Z,11.40
2018-02-06T09:36:55.081Z,10.30
2018-02-06T09:37:55.052Z,9.50
2018-02-06T09:38:55.006Z,11.00
2018-02-06T09:39:55.010Z,13.80
2018-02-06T09:40:54.966Z,8.20
2018-02-06T09:41:54.973Z,9.30
2018-02-06T09:42:54.954Z,9.40
2018-02-06T09:43:54.929Z,8.80
2018-02-06T09:44:54.913Z,12.30
2018-02-06T09:45:54.892Z,8.40
2018-02-06T09:46:54.869Z,7.40
2018-02-06T09:47:54.821Z,9.10
2018-02-06T09:48:54.842Z,8.40
2018-02-06T09:49:54.783Z,8.30
2018-02-06T09:50:54.765Z,9.40
2018-02-06T09:51:54.771Z,11.10
2018-02-06T09:52:54.729Z,7.80
2018-02-06T09:53:54.701Z,8.20
2018-02-06T09:54:54.702Z,8.10
2018-02-06T09:55:54.689Z,9.30
2018-02-06T09:56:54.654Z,7.60
2018-02-06T09:57:54.628Z,8.30
2018-02-06T09:58:54.608Z,7.30
2018-02-06T09:59:54.610Z,7.20
2018-02-06T10:00:54.577Z,7.90
2018-02-06T10:01:54.557Z,8.50
2018-02-06T10:02:54.524Z,8.90
2018-02-06T10:03:54.500Z,8.60
2018-02-06T10:04:54.717Z,7.40
2018-02-06T10:05:54.462Z,8.90
2018-02-06T10:06:54.468Z,7.20
2018-02-06T10:07:54.426Z,8.30
2018-02-06T10:08:54.404Z,7.10
2018-02-06T10:09:54.380Z,6.60
2018-02-06T10:10:54.371Z,6.20
2018-02-06T10:11:54.360Z,8.00
2018-02-06T10:12:54.353Z,7.40
2018-02-06T10:13:54.301Z,8.10
2018-02-06T10:14:54.296Z,11.00
2018-02-06T10:15:54.265Z,6.50
2018-02-06T10:16:54.244Z,6.40
2018-02-06T10:17:54.224Z,7.00
2018-02-06T10:18:54.216Z,5.50
2018-02-06T10:19:54.187Z,6.40
2018-02-06T10:20:54.160Z,6.90
2018-02-06T10:21:54.150Z,6.70
2018-02-06T10:22:54.129Z,6.00
2018-02-06T10:23:54.122Z,7.50
2018-02-06T10:24:54.303Z,5.80
2018-02-06T10:25:54.066Z,6.60
2018-02-06T10:26:54.045Z,6.70
2018-02-06T10:27:54.033Z,5.40
2018-02-06T10:28:54.038Z,7.60
2018-02-06T10:29:53.995Z,8.60
2018-02-06T10:30:53.998Z,7.60
2018-02-06T10:31:53.956Z,6.50
2018-02-06T10:32:53.933Z,8.10
2018-02-06T10:33:53.916Z,6.30
2018-02-06T10:34:53.904Z,7.40
2018-02-06T10:35:53.904Z,8.80
2018-02-06T10:36:53.860Z,6.00
2018-02-06T10:37:53.872Z,10.70
2018-02-06T10:38:53.848Z,9.00
2018-02-06T10:39:53.800Z,9.40
2018-02-06T10:40:53.783Z,6.50
2018-02-06T10:41:53.788Z,6.10
2018-02-06T10:42:53.741Z,6.60
2018-02-06T10:43:53.733Z,6.70
2018-02-06T10:44:53.735Z,6.40
2018-02-06T10:45:53.684Z,6.40
2018-02-06T10:46:53.670Z,6.60
2018-02-06T10:47:53.649Z,7.20
2018-02-06T10:48:53.634Z,7.60
2018-02-06T10:49:53.638Z,7.10
2018-02-06T10:50:53.597Z,6.80
2018-02-06T10:51:53.574Z,6.00
2018-02-06T10:52:53.604Z,7.90
2018-02-06T10:53:53.546Z,8.20
2018-02-06T10:54:53.534Z,5.70
2018-02-06T10:55:53.532Z,6.60
2018-02-06T10:56:54.025Z,6.30
2018-02-06T10:57:53.498Z,6.70
2018-02-06T10:58:53.448Z,7.70
2018-02-06T10:59:53.460Z,9.30
2018-02-06T11:00:53.438Z,8.40
2018-02-06T11:01:53.420Z,6.00
2018-02-06T11:02:53.379Z,5.40
2018-02-06T11:03:53.359Z,7.10
2018-02-06T11:04:53.370Z,7.50
2018-02-06T11:05:53.351Z,8.10
2018-02-06T11:06:53.321Z,6.50
2018-02-06T11:07:53.288Z,8.10
2018-02-06T11:08:53.277Z,7.10
2018-02-06T11:09:53.251Z,5.80
2018-02-06T11:10:53.237Z,6.50
2018-02-06T11:11:53.229Z,9.50
2018-02-06T11:12:53.232Z,7.80
2018-02-06T11:13:53.185Z,7.80
2018-02-06T11:14:53.183Z,5.40
2018-02-06T11:15:53.180Z,6.30
2018-02-06T11:16:53.164Z,7.40
2018-02-06T11:17:53.146Z,5.50
2018-02-06T11:18:53.127Z,7.40
2018-02-06T11:19:53.178Z,6.20
2018-02-06T11:20:53.095Z,8.40
2018-02-06T11:21:53.080Z,4.60
2018-02-06T11:22:53.066Z,5.60
2018-02-06T11:23:53.045Z,4.40
2018-02-06T11:24:53.029Z,7.50
2018-02-06T11:25:52.986Z,5.70
2018-02-06T11:26:52.969Z,6.00
2018-02-06T11:27:52.980Z,5.70
2018-02-06T11:28:52.967Z,9.30
2018-02-06T11:29:52.950Z,6.20
2018-02-06T11:30:52.922Z,6.50
2018-02-06T11:31:52.922Z,7.70
2018-02-06T11:32:52.879Z,8.80
2018-02-06T11:33:52.862Z,6.40
2018-02-06T11:34:52.884Z,7.30
2018-02-06T11:35:52.838Z,6.00
2018-02-06T11:36:52.823Z,5.20
2018-02-06T11:37:52.839Z,5.50
2018-02-06T11:38:52.820Z,6.00
2018-02-06T11:39:52.810Z,5.00
2018-02-06T11:40:52.765Z,5.30
2018-02-06T11:41:52.760Z,6.00
2018-02-06T11:42:52.764Z,4.60
2018-02-06T11:43:52.736Z,5.80
2018-02-06T11:44:52.708Z,5.90
2018-02-06T11:45:52.694Z,8.80
2018-02-06T11:46:52.682Z,6.10
2018-02-06T11:47:52.664Z,6.10
2018-02-06T11:48:52.649Z,7.20
2018-02-06T11:49:52.637Z,5.50
2018-02-06T11:50:52.641Z,5.70
2018-02-06T11:51:52.618Z,6.00
2018-02-06T11:52:52.604Z,6.80
2018-02-06T11:53:52.579Z,6.10
2018-02-06T11:54:52.569Z,6.30
2018-02-06T11:55:52.578Z,6.70
2018-02-06T11:56:52.536Z,7.00
2018-02-06T11:57:52.528Z,5.70
2018-02-06T11:58:52.544Z,6.30
2018-02-06T11:59:52.531Z,6.80
2018-02-06T12:00:52.488Z,5.50
2018-02-06T12:01:52.484Z,6.90
2018-02-06T12:02:52.460Z,7.40
2018-02-06T12:03:52.442Z,7.00
2018-02-06T12:04:52.440Z,7.00
2018-02-06T12:05:52.431Z,9.90
2018-02-06T12:06:52.403Z,6.00
2018-02-06T12:07:52.417Z,7.30
2018-02-06T12:08:52.373Z,6.40
2018-02-06T12:09:52.389Z,6.10
2018-02-06T12:10:52.347Z,6.50
2018-02-06T12:11:52.362Z,6.80
2018-02-06T12:12:52.343Z,7.90
2018-02-06T12:13:52.303Z,7.40
2018-02-06T12:14:52.291Z,6.50
2018-02-06T12:15:52.277Z,9.60
2018-02-06T12:16:52.270Z,8.40
2018-02-06T12:17:52.252Z,7.20
2018-02-06T12:18:52.244Z,10.60
2018-02-06T12:19:52.247Z,6.80
2018-02-06T12:20:52.203Z,7.10
2018-02-06T12:21:52.192Z,7.10
2018-02-06T12:22:52.188Z,8.50
2018-02-06T12:23:52.183Z,8.60
2018-02-06T12:24:52.141Z,7.20
2018-02-06T12:25:52.139Z,7.40
2018-02-06T12:26:52.110Z,7.40
2018-02-06T12:27:52.098Z,7.20
2018-02-06T12:28:52.091Z,7.90
2018-02-06T12:29:52.068Z,7.40
2018-02-06T12:30:52.047Z,7.50
2018-02-06T12:31:52.038Z,7.70
2018-02-06T12:32:52.018Z,7.90
2018-02-06T12:33:52.001Z,7.20
2018-02-06T12:34:52.011Z,9.40
2018-02-06T12:35:51.994Z,7.30
2018-02-06T12:36:51.957Z,6.60
2018-02-06T12:37:51.941Z,8.10
2018-02-06T12:38:51.948Z,8.20
2018-02-06T12:39:51.907Z,5.60
2018-02-06T12:40:51.894Z,7.10
2018-02-06T12:41:51.877Z,8.00
2018-02-06T12:42:51.863Z,7.20
2018-02-06T12:43:51.846Z,7.80
2018-02-06T12:44:51.863Z,6.10
2018-02-06T12:45:51.844Z,7.20
2018-02-06T12:46:51.828Z,8.40
2018-02-06T12:47:51.815Z,8.30
2018-02-06T12:48:51.772Z,7.90
2018-02-06T12:49:51.758Z,9.80
2018-02-06T12:50:51.738Z,7.50
2018-02-06T12:51:51.754Z,7.10
2018-02-06T12:52:51.722Z,6.70
2018-02-06T12:53:51.700Z,6.70
2018-02-06T12:54:51.700Z,7.50
2018-02-06T12:55:51.673Z,9.10
2018-02-06T12:56:51.677Z,7.50
2018-02-06T12:57:51.674Z,6.80
2018-02-06T12:58:51.635Z,7.70
2018-02-06T12:59:51.617Z,6.10
2018-02-06T13:00:51.604Z,6.60
2018-02-06T13:01:51.596Z,7.40
2018-02-06T13:02:51.584Z,8.10
2018-02-06T13:03:51.566Z,7.20
2018-02-06T13:04:51.580Z,7.70
2018-02-06T13:05:51.568Z,6.60
2018-02-06T13:06:51.530Z,7.60
2018-02-06T13:07:51.544Z,6.50
2018-02-06T13:08:51.533Z,6.10
2018-02-06T13:09:51.492Z,6.80
2018-02-06T13:10:51.479Z,7.10
2018-02-06T13:11:51.467Z,7.30
2018-02-06T13:12:51.479Z,7.90
2018-02-06T13:13:51.440Z,9.50
2018-02-06T13:14:51.432Z,10.50
2018-02-06T13:15:51.412Z,12.00
2018-02-06T13:16:51.398Z,8.20
2018-02-06T13:17:51.397Z,8.60
2018-02-06T13:18:51.377Z,7.70
2018-02-06T13:19:51.357Z,7.60
2018-02-06T13:20:51.352Z,7.80
2018-02-06T13:21:51.328Z,7.10
2018-02-06T13:22:51.350Z,8.70
2018-02-06T13:23:51.337Z,8.30
2018-02-06T13:24:51.297Z,8.80
2018-02-06T13:25:51.281Z,7.60
2018-02-06T13:26:51.265Z,6.90
2018-02-06T13:27:51.291Z,7.70
2018-02-06T13:28:51.248Z,7.80
2018-02-06T13:29:51.248Z,7.30
2018-02-06T13:30:51.228Z,8.60
2018-02-06T13:31:51.214Z,7.30
2018-02-06T13:32:51.228Z,10.00
2018-02-06T13:33:51.195Z,9.60
2018-02-06T13:34:51.201Z,9.40
2018-02-06T13:35:51.166Z,10.40
2018-02-06T13:36:51.178Z,10.80
2018-02-06T13:37:51.173Z,10.30
2018-02-06T13:38:51.130Z,11.20
2018-02-06T13:39:51.113Z,12.10
2018-02-06T13:40:51.107Z,10.90
2018-02-06T13:41:51.127Z,10.70
2018-02-06T13:42:51.083Z,9.40
2018-02-06T13:43:51.066Z,10.60
2018-02-06T13:44:51.087Z,11.10
2018-02-06T13:45:51.071Z,13.40
2018-02-06T13:46:51.062Z,10.00
2018-02-06T13:47:51.029Z,9.50
2018-02-06T13:48:51.010Z,9.50
2018-02-06T13:49:50.990Z,9.00
2018-02-06T13:50:50.987Z,9.00
2018-02-06T13:51:50.970Z,9.60
2018-02-06T13:52:50.989Z,7.60
2018-02-06T13:53:50.965Z,7.50
2018-02-06T13:54:50.925Z,7.40
2018-02-06T13:55:50.922Z,6.90
2018-02-06T13:56:50.907Z,7.70
2018-02-06T13:57:50.890Z,8.50
2018-02-06T13:58:50.890Z,9.30
2018-02-06T13:59:50.885Z,11.10
2018-02-06T14:00:50.871Z,12.60
2018-02-06T14:01:50.828Z,12.60
2018-02-06T14:02:50.823Z,11.70
2018-02-06T14:03:50.803Z,11.60
2018-02-06T14:04:50.789Z,12.70
2018-02-06T14:05:50.773Z,11.10
2018-02-06T14:06:50.760Z,10.60
2018-02-06T14:07:50.758Z,13.10
2018-02-06T14:08:50.745Z,12.20
2018-02-06T14:09:50.719Z,12.00
2018-02-06T14:10:50.709Z,11.30
2018-02-06T14:11:50.695Z,11.10
2018-02-06T14:12:50.677Z,11.00
2018-02-06T14:13:50.671Z,9.40
2018-02-06T14:14:50.687Z,10.80
2018-02-06T14:15:50.667Z,12.20
2018-02-06T14:16:50.646Z,11.20
2018-02-06T14:17:50.618Z,11.70
2018-02-06T14:18:50.632Z,13.80
2018-02-06T14:19:50.588Z,13.10
2018-02-06T14:20:50.577Z,12.10
2018-02-06T14:21:50.564Z,12.30
2018-02-06T14:22:50.552Z,10.80
2018-02-06T14:23:50.554Z,10.50
2018-02-06T14:24:50.529Z,9.90
2018-02-06T14:25:50.546Z,10.20
2018-02-06T14:26:50.500Z,10.80
2018-02-06T14:27:50.512Z,11.20
2018-02-06T14:28:50.504Z,11.50
2018-02-06T14:29:50.461Z,10.90
2018-02-06T14:30:50.477Z,10.60
2018-02-06T14:31:50.435Z,12.30
2018-02-06T14:32:50.425Z,10.20
2018-02-06T14:33:50.436Z,10.90
2018-02-06T14:34:50.426Z,10.60
2018-02-06T14:35:50.384Z,10.70
2018-02-06T14:36:50.401Z,11.10
2018-02-06T14:37:50.364Z,9.80
2018-02-06T14:38:50.352Z,8.50
2018-02-06T14:39:50.336Z,8.70
2018-02-06T14:40:50.334Z,9.30
2018-02-06T14:41:50.321Z,10.30
2018-02-06T14:42:50.297Z,9.50
2018-02-06T14:43:50.289Z,8.60
2018-02-06T14:44:50.275Z,8.40
2018-02-06T14:45:50.266Z,9.80
2018-02-06T14:46:50.274Z,9.60
2018-02-06T14:47:50.260Z,10.40
2018-02-06T14:48:50.250Z,10.90
2018-02-06T14:49:50.208Z,10.60
2018-02-06T14:50:50.198Z,12.00
2018-02-06T14:51:50.174Z,10.00
2018-02-06T14:52:50.190Z,11.30
2018-02-06T14:53:50.145Z,11.90
2018-02-06T14:54:50.139Z,11.20
2018-02-06T14:55:50.124Z,10.30
2018-02-06T14:56:50.105Z,10.40
2018-02-06T14:57:50.116Z,10.40
2018-02-06T14:58:50.076Z,13.10
2018-02-06T14:59:50.062Z,9.70
2018-02-06T15:00:50.073Z,11.20
2018-02-06T15:01:50.062Z,12.10
2018-02-06T15:02:50.045Z,11.40
2018-02-06T15:03:50.002Z,10.70
2018-02-06T15:04:50.020Z,11.70
2018-02-06T15:05:50.004Z,9.20
2018-02-06T15:06:49.993Z,10.70